createdAt,value
2018-05-26T00:00:29.670Z,23.30
2018-05-26T00:02:57.136Z,23.20
2018-05-26T00:05:24.688Z,23.10
2018-05-26T00:07:52.098Z,23.00
2018-05-26T00:10:19.559Z,22.90
2018-05-26T00:12:46.984Z,22.70
2018-05-26T00:15:14.419Z,22.70
2018-05-26T00:17:41.872Z,22.90
2018-05-26T00:20:09.323Z,22.90
2018-05-26T00:22:36.752Z,22.90
2018-05-26T00:25:04.971Z,22.90
2018-05-26T00:27:32.399Z,22.90
2018-05-26T00:29:59.853Z,23.00
2018-05-26T00:32:27.347Z,23.00
2018-05-26T00:34:54.808Z,23.10
2018-05-26T00:37:22.248Z,22.80
2018-05-26T00:39:49.680Z,22.90
2018-05-26T00:42:17.884Z,23.00
2018-05-26T00:44:45.358Z,22.90
2018-05-26T00:47:12.842Z,22.80
2018-05-26T00:49:40.284Z,22.90
2018-05-26T00:52:07.716Z,22.70
2018-05-26T00:54:35.196Z,22.50
2018-05-26T00:57:02.704Z,22.50
2018-05-26T00:59:30.209Z,22.40
2018-05-26T01:01:57.639Z,22.50
2018-05-26T01:04:25.074Z,22.60
2018-05-26T01:06:53.300Z,22.30
2018-05-26T01:09:20.779Z,22.30
2018-05-26T01:11:48.210Z,22.30
2018-05-26T01:14:15.639Z,22.40
2018-05-26T01:16:43.128Z,22.40
2018-05-26T01:19:10.551Z,22.40
2018-05-26T01:21:38.004Z,22.30
2018-05-26T01:24:05.454Z,22.30
2018-05-26T01:26:33.701Z,22.20
2018-05-26T01:29:01.128Z,22.20
2018-05-26T01:31:28.552Z,22.30
2018-05-26T01:33:56.760Z,22.40
2018-05-26T01:36:24.223Z,22.30
2018-05-26T01:38:51.665Z,22.40
2018-05-26T01:41:19.142Z,22.30
2018-05-26T01:43:46.569Z,22.40
2018-05-26T01:46:14.053Z,22.30
2018-05-26T01:48:41.483Z,22.30
2018-05-26T01:51:08.969Z,22.30
2018-05-26T01:53:36.434Z,22.20
2018-05-26T01:56:04.327Z,22.20
2018-05-26T01:58:32.628Z,22.10
2018-05-26T02:01:01.166Z,22.10
2018-05-26T02:03:28.624Z,22.10
2018-05-26T02:05:56.059Z,22.00
2018-05-26T02:08:23.571Z,22.00
2018-05-26T02:10:51.785Z,21.90
2018-05-26T02:13:19.267Z,21.90
2018-05-26T02:15:46.720Z,21.90
2018-05-26T02:18:14.152Z,21.80
2018-05-26T02:20:41.659Z,21.80
2018-05-26T02:23:10.629Z,21.70
2018-05-26T02:25:38.092Z,21.70
2018-05-26T02:28:05.547Z,21.70
2018-05-26T02:30:33.003Z,21.80
2018-05-26T02:33:00.458Z,21.80
2018-05-26T02:35:27.895Z,21.80
2018-05-26T02:37:55.324Z,21.80
2018-05-26T02:40:23.556Z,21.60
2018-05-26T02:42:51.018Z,21.60
2018-05-26T02:45:18.459Z,21.70
2018-05-26T02:47:45.891Z,21.70
2018-05-26T02:50:13.380Z,21.60
2018-05-26T02:52:41.746Z,21.60
2018-05-26T02:55:09.231Z,21.60
2018-05-26T02:57:36.672Z,21.60
2018-05-26T03:00:04.147Z,21.60
2018-05-26T03:02:31.583Z,21.50
2018-05-26T03:05:04.588Z,21.60
2018-05-26T03:07:37.808Z,21.60
2018-05-26T03:10:11.027Z,21.60
2018-05-26T03:12:45.054Z,21.40
2018-05-26T03:15:11.984Z,21.40
2018-05-26T03:17:57.883Z,21.50
2018-05-26T03:20:25.320Z,21.40
2018-05-26T03:22:53.547Z,21.50
2018-05-26T03:25:20.985Z,21.40
2018-05-26T03:27:48.475Z,21.50
2018-05-26T03:30:15.924Z,21.60
2018-05-26T03:32:43.384Z,21.50
2018-05-26T03:35:10.845Z,21.40
2018-05-26T03:37:38.284Z,21.50
2018-05-26T03:40:05.771Z,21.50
2018-05-26T03:42:33.232Z,21.50
2018-05-26T03:45:00.668Z,21.50
2018-05-26T03:47:28.109Z,21.50
2018-05-26T03:49:55.535Z,21.60
2018-05-26T03:52:24.136Z,21.60
2018-05-26T03:58:14.204Z,21.50
2018-05-26T04:00:41.741Z,21.40
2018-05-26T04:03:09.228Z,21.50
2018-05-26T04:05:37.439Z,21.70
2018-05-26T04:08:04.892Z,21.70
2018-05-26T04:10:32.384Z,21.80
2018-05-26T04:12:59.828Z,21.80
2018-05-26T04:15:27.259Z,21.90
2018-05-26T04:17:55.461Z,21.90
2018-05-26T04:20:22.891Z,21.90
2018-05-26T04:22:51.093Z,22.00
2018-05-26T04:25:18.523Z,22.00
2018-05-26T04:27:46.727Z,22.10
2018-05-26T04:30:14.183Z,22.10
2018-05-26T04:32:41.660Z,22.10
2018-05-26T04:35:09.099Z,22.00
2018-05-26T04:37:36.536Z,22.20
2018-05-26T04:40:04.038Z,22.30
2018-05-26T04:42:31.574Z,22.30
2018-05-26T04:44:58.991Z,22.40
2018-05-26T04:47:27.195Z,22.40
2018-05-26T04:49:54.671Z,22.30
2018-05-26T04:52:22.131Z,22.30
2018-05-26T04:54:49.566Z,22.40
2018-05-26T04:57:17.003Z,22.50
2018-05-26T04:59:44.802Z,22.60
2018-05-26T05:02:12.227Z,22.60
2018-05-26T05:04:40.428Z,22.90
2018-05-26T05:07:07.900Z,22.80
2018-05-26T05:09:35.367Z,23.00
2018-05-26T05:12:02.825Z,23.00
2018-05-26T05:14:30.273Z,23.10
2018-05-26T05:16:57.736Z,23.20
2018-05-26T05:19:25.249Z,23.20
2018-05-26T05:21:52.656Z,23.20
2018-05-26T05:24:20.098Z,23.30
2018-05-26T05:26:47.554Z,23.40
2018-05-26T05:29:15.735Z,23.50
2018-05-26T05:31:43.305Z,23.50
2018-05-26T05:34:10.766Z,23.60
2018-05-26T05:36:38.279Z,23.60
2018-05-26T05:39:06.508Z,23.70
2018-05-26T05:41:33.948Z,23.60
2018-05-26T05:44:01.421Z,23.70
2018-05-26T05:46:28.889Z,23.80
2018-05-26T05:48:56.334Z,23.90
2018-05-26T05:51:23.769Z,24.00
2018-05-26T05:53:51.207Z,23.90
2018-05-26T05:56:18.670Z,24.10
2018-05-26T05:58:46.076Z,24.20
2018-05-26T06:01:13.510Z,24.30
2018-05-26T06:03:40.944Z,24.40
2018-05-26T06:06:08.394Z,24.50
2018-05-26T06:08:36.956Z,24.80
2018-05-26T06:11:05.168Z,24.90
2018-05-26T06:13:32.605Z,24.90
2018-05-26T06:16:00.087Z,24.90
2018-05-26T06:18:27.530Z,25.10
2018-05-26T06:20:55.738Z,25.40
2018-05-26T06:23:23.174Z,25.40
2018-05-26T06:25:51.032Z,25.60
2018-05-26T06:28:19.239Z,25.90
2018-05-26T06:30:46.669Z,25.80
2018-05-26T06:33:14.097Z,25.80
2018-05-26T06:35:42.315Z,26.50
2018-05-26T06:38:09.731Z,26.50
2018-05-26T06:40:37.938Z,28.40
2018-05-26T06:43:05.400Z,28.40
2018-05-26T06:45:32.832Z,30.00
2018-05-26T06:48:01.058Z,33.50
2018-05-26T06:50:28.509Z,33.50
2018-05-26T06:52:56.795Z,35.50
2018-05-26T06:55:24.256Z,35.70
2018-05-26T06:57:51.804Z,36.80
2018-05-26T07:00:19.267Z,37.30
2018-05-26T07:02:46.726Z,37.90
2018-05-26T07:05:14.160Z,38.10
2018-05-26T07:07:41.588Z,38.40
2018-05-26T07:10:09.820Z,39.80
2018-05-26T07:12:37.255Z,39.80
2018-05-26T07:15:04.729Z,40.40
2018-05-26T07:17:32.173Z,40.60
2018-05-26T07:19:59.639Z,40.90
2018-05-26T07:22:27.118Z,41.70
2018-05-26T07:24:54.552Z,41.70
2018-05-26T07:27:21.984Z,41.80
2018-05-26T07:29:49.458Z,40.70
2018-05-26T07:32:16.896Z,40.80
2018-05-26T07:34:45.802Z,41.60
2018-05-26T07:37:13.223Z,41.60
2018-05-26T07:39:41.433Z,41.50
2018-05-26T07:42:08.853Z,41.50
2018-05-26T07:44:37.053Z,42.20
2018-05-26T07:47:04.479Z,42.20
2018-05-26T07:49:32.694Z,41.60
2018-05-26T07:52:00.145Z,41.60
2018-05-26T07:54:28.320Z,42.30
2018-05-26T07:56:55.761Z,42.30
2018-05-26T07:59:23.967Z,42.00
2018-05-26T08:01:51.392Z,41.90
2018-05-26T08:04:19.809Z,41.00
2018-05-26T08:06:47.472Z,41.00
2018-05-26T08:09:15.187Z,41.40
2018-05-26T08:11:43.576Z,41.60
2018-05-26T08:14:12.023Z,42.50
2018-05-26T08:16:39.683Z,42.50
2018-05-26T08:19:07.363Z,42.50
2018-05-26T08:21:37.727Z,42.20
2018-05-26T08:24:05.308Z,42.20
2018-05-26T08:26:32.948Z,42.90
2018-05-26T08:29:01.602Z,43.00
2018-05-26T08:31:29.213Z,42.10
2018-05-26T08:33:56.829Z,40.90
2018-05-26T08:36:24.578Z,40.10
2018-05-26T08:38:52.023Z,39.50
2018-05-26T08:41:19.452Z,38.60
2018-05-26T08:43:46.961Z,36.70
2018-05-26T08:46:14.396Z,35.70
2018-05-26T08:48:41.830Z,35.50
2018-05-26T08:51:09.363Z,35.50
2018-05-26T08:53:36.759Z,35.50
2018-05-26T08:56:04.198Z,35.70
2018-05-26T08:58:31.628Z,35.60
2018-05-26T09:00:59.838Z,35.10
2018-05-26T09:03:27.279Z,35.10
2018-05-26T09:05:54.721Z,34.70
2018-05-26T09:08:22.154Z,34.20
2018-05-26T09:10:49.588Z,34.30
2018-05-26T09:13:17.024Z,34.50
2018-05-26T09:15:44.465Z,34.50
2018-05-26T09:18:11.900Z,34.40
2018-05-26T09:20:40.098Z,34.80
2018-05-26T09:23:07.526Z,35.00
2018-05-26T09:25:35.776Z,34.80
2018-05-26T09:28:03.919Z,34.50
2018-05-26T09:30:31.373Z,34.60
2018-05-26T09:32:59.239Z,34.80
2018-05-26T09:35:27.719Z,34.50
2018-05-26T09:37:55.140Z,34.50
2018-05-26T09:40:23.343Z,34.50
2018-05-26T09:42:50.770Z,34.50
2018-05-26T09:45:18.967Z,34.80
2018-05-26T09:47:46.399Z,34.70
2018-05-26T09:50:13.827Z,35.20
2018-05-26T09:52:41.258Z,35.60
2018-05-26T09:55:08.722Z,35.90
2018-05-26T09:57:36.147Z,36.00
2018-05-26T10:00:03.606Z,36.10
2018-05-26T10:02:31.809Z,36.60
2018-05-26T10:04:59.268Z,36.60
2018-05-26T10:07:26.711Z,36.70
2018-05-26T10:09:54.147Z,36.70
2018-05-26T10:12:22.361Z,36.00
2018-05-26T10:14:49.782Z,36.00
2018-05-26T10:17:17.979Z,36.20
2018-05-26T10:19:46.550Z,36.50
2018-05-26T10:22:13.983Z,36.40
2018-05-26T10:24:42.191Z,36.30
2018-05-26T10:27:09.615Z,36.30
2018-05-26T10:29:37.807Z,36.70
2018-05-26T10:32:05.244Z,36.80
2018-05-26T10:34:33.460Z,37.40
2018-05-26T10:37:00.888Z,37.30
2018-05-26T11:12:18.887Z,32.60
2018-05-26T11:14:46.322Z,33.50
2018-05-26T11:17:13.802Z,35.00
2018-05-26T11:19:41.225Z,35.80
2018-05-26T11:22:09.439Z,36.20
2018-05-26T11:24:36.906Z,36.10
2018-05-26T11:27:04.334Z,36.60
2018-05-26T11:29:31.759Z,37.10
2018-05-26T11:31:59.200Z,37.50
2018-05-26T11:34:26.662Z,38.00
2018-05-26T11:36:54.183Z,38.40
2018-05-26T11:39:21.600Z,38.50
2018-05-26T11:41:49.837Z,38.40
2018-05-26T11:44:17.264Z,38.40
2018-05-26T11:46:44.704Z,38.40
2018-05-26T11:49:12.911Z,38.70
2018-05-26T11:51:40.351Z,38.70
2018-05-26T11:54:07.797Z,38.50
2018-05-26T11:56:35.996Z,38.60
2018-05-26T11:59:03.423Z,38.70
2018-05-26T12:01:31.623Z,38.40
2018-05-26T12:03:59.068Z,38.40
2018-05-26T12:06:26.510Z,38.30
2018-05-26T12:08:54.703Z,38.10
2018-05-26T12:11:22.155Z,38.10
2018-05-26T12:13:49.593Z,38.20
2018-05-26T12:16:17.802Z,38.40
2018-05-26T12:18:46.147Z,38.40
2018-05-26T12:21:14.348Z,38.60
2018-05-26T12:23:41.785Z,38.60
2018-05-26T12:26:09.990Z,38.70
2018-05-26T12:28:37.411Z,38.70
2018-05-26T12:31:05.620Z,38.70
2018-05-26T12:33:33.983Z,38.70
2018-05-26T12:36:02.197Z,38.50
2018-05-26T12:38:29.638Z,38.50
2018-05-26T12:40:57.063Z,38.40
2018-05-26T12:43:25.288Z,38.40
2018-05-26T12:45:52.716Z,38.40
2018-05-26T12:48:20.153Z,38.10
2018-05-26T12:50:48.360Z,38.10
2018-05-26T12:53:15.803Z,38.10
2018-05-26T12:55:43.233Z,38.30
2018-05-26T12:58:11.435Z,38.50
2018-05-26T13:00:38.874Z,38.50
2018-05-26T13:03:07.081Z,38.90
2018-05-26T13:05:34.515Z,38.90
2018-05-26T13:08:01.953Z,38.90
2018-05-26T13:10:30.155Z,39.00
2018-05-26T13:12:58.196Z,39.00
2018-05-26T13:15:25.620Z,38.90
2018-05-26T13:17:53.085Z,39.00
2018-05-26T13:20:20.515Z,38.90
2018-05-26T13:22:47.955Z,39.00
2018-05-26T13:25:15.383Z,39.20
2018-05-26T13:27:43.587Z,38.90
2018-05-26T13:30:11.021Z,38.90
2018-05-26T13:32:39.251Z,39.00
2018-05-26T13:35:06.667Z,39.00
2018-05-26T13:37:34.869Z,39.30
2018-05-26T13:40:02.303Z,39.20
2018-05-26T13:42:30.502Z,39.20
2018-05-26T13:44:57.936Z,39.20
2018-05-26T13:47:26.160Z,38.90
2018-05-26T13:49:53.619Z,38.90
2018-05-26T13:52:21.135Z,39.00
2018-05-26T13:54:48.496Z,39.10
2018-05-26T13:57:15.935Z,39.10
2018-05-26T13:59:44.130Z,39.00
2018-05-26T14:02:11.569Z,39.00
2018-05-26T14:04:39.778Z,39.00
2018-05-26T14:07:07.216Z,39.00
2018-05-26T14:09:34.661Z,38.80
2018-05-26T14:12:02.861Z,38.80
2018-05-26T14:14:30.312Z,38.80
2018-05-26T14:16:57.743Z,38.80
2018-05-26T14:19:25.955Z,38.70
2018-05-26T14:21:53.465Z,38.70
2018-05-26T14:24:20.908Z,38.80
2018-05-26T14:26:48.342Z,38.60
2018-05-26T14:29:15.788Z,38.50
2018-05-26T14:31:43.219Z,38.70
2018-05-26T14:34:10.660Z,38.70
2018-05-26T14:36:38.866Z,38.60
2018-05-26T14:39:06.296Z,38.60
2018-05-26T14:41:34.496Z,38.70
2018-05-26T14:44:01.931Z,38.70
2018-05-26T14:46:30.123Z,38.40
2018-05-26T14:48:57.568Z,38.30
2018-05-26T14:51:25.783Z,38.50
2018-05-26T14:53:53.233Z,38.40
2018-05-26T14:56:20.656Z,38.50
2018-05-26T14:58:48.876Z,38.50
2018-05-26T15:01:16.299Z,38.50
2018-05-26T15:03:43.743Z,38.50
2018-05-26T15:06:11.961Z,38.40
2018-05-26T15:08:39.396Z,38.40
2018-05-26T15:11:06.827Z,38.30
2018-05-26T15:13:35.046Z,38.10
2018-05-26T15:16:02.488Z,38.10
2018-05-26T15:21:03.886Z,37.80
2018-05-26T15:23:31.320Z,37.70
2018-05-26T15:25:58.756Z,37.50
2018-05-26T15:28:26.967Z,37.40
2018-05-26T15:30:54.475Z,37.40
2018-05-26T15:33:21.865Z,37.40
2018-05-26T15:35:49.315Z,37.30
2018-05-26T15:38:16.754Z,37.20
2018-05-26T15:40:44.959Z,37.20
2018-05-26T15:43:12.413Z,37.20
2018-05-26T15:45:39.843Z,37.20
2018-05-26T15:48:08.049Z,37.00
2018-05-26T15:50:35.484Z,36.90
2018-05-26T15:53:03.681Z,36.60
2018-05-26T15:55:31.117Z,36.60
2018-05-26T15:57:59.325Z,36.60
2018-05-26T16:00:26.783Z,36.60
2018-05-26T16:02:54.247Z,36.60
2018-05-26T16:05:21.668Z,36.50
2018-05-26T16:07:49.104Z,36.30
2018-05-26T16:10:17.323Z,36.10
2018-05-26T16:12:44.745Z,36.00
2018-05-26T16:15:12.957Z,36.00
2018-05-26T16:17:40.386Z,36.00
2018-05-26T16:20:08.599Z,36.10
2018-05-26T16:22:36.023Z,36.10
2018-05-26T16:25:03.465Z,36.00
2018-05-26T16:27:31.663Z,35.80
2018-05-26T16:29:59.099Z,35.80
2018-05-26T16:32:27.304Z,35.60
2018-05-26T16:34:54.756Z,35.60
2018-05-26T16:37:22.284Z,35.50
2018-05-26T16:39:49.724Z,35.50
2018-05-26T16:42:17.172Z,35.30
2018-05-26T16:44:44.608Z,35.30
2018-05-26T16:47:12.062Z,35.30
2018-05-26T16:49:39.500Z,35.30
2018-05-26T16:52:06.934Z,35.30
2018-05-26T16:54:35.206Z,35.20
2018-05-26T16:57:03.412Z,35.10
2018-05-26T16:59:30.847Z,35.10
2018-05-26T17:01:59.056Z,35.20
2018-05-26T17:04:26.492Z,35.10
2018-05-26T17:06:53.927Z,35.10
2018-05-26T17:09:21.379Z,35.00
2018-05-26T17:11:48.798Z,34.90
2018-05-26T17:14:16.243Z,34.90
2018-05-26T17:16:43.680Z,34.80
2018-05-26T17:19:11.113Z,34.70
2018-05-26T17:21:38.548Z,34.70
2018-05-26T17:24:05.984Z,34.60
2018-05-26T17:26:33.943Z,34.60
2018-05-26T17:29:01.383Z,34.60
2018-05-26T17:31:28.833Z,34.50
2018-05-26T17:33:57.040Z,34.60
2018-05-26T17:36:24.477Z,34.50
2018-05-26T17:38:51.903Z,34.60
2018-05-26T17:41:20.107Z,34.40
2018-05-26T17:43:47.546Z,34.40
2018-05-26T17:46:15.758Z,34.20
2018-05-26T17:48:43.208Z,34.20
2018-05-26T17:51:10.635Z,34.20
2018-05-26T17:53:38.836Z,34.10
2018-05-26T17:56:07.167Z,34.10
2018-05-26T17:58:34.599Z,34.10
2018-05-26T18:01:02.043Z,34.10
2018-05-26T18:03:29.477Z,34.10
2018-05-26T18:05:56.946Z,34.10
2018-05-26T18:08:24.367Z,34.00
2018-05-26T18:10:51.811Z,33.90
2018-05-26T18:13:19.260Z,33.90
2018-05-26T18:15:46.825Z,33.90
2018-05-26T18:18:14.266Z,33.80
2018-05-26T18:20:41.712Z,33.80
2018-05-26T18:23:09.143Z,33.70
2018-05-26T18:25:36.591Z,33.70
2018-05-26T18:28:04.775Z,33.50
2018-05-26T18:30:32.234Z,33.50
2018-05-26T18:32:59.664Z,33.40
2018-05-26T18:35:27.872Z,33.20
2018-05-26T18:37:55.306Z,33.20
2018-05-26T18:40:23.527Z,33.20
2018-05-26T18:42:51.020Z,33.10
2018-05-26T18:45:19.056Z,33.10
2018-05-26T18:47:46.939Z,33.00
2018-05-26T18:50:14.376Z,32.90
2018-05-26T18:52:41.811Z,32.90
2018-05-26T18:55:09.242Z,32.80
2018-05-26T18:57:36.671Z,32.80
2018-05-26T19:00:04.201Z,32.70
2018-05-26T19:02:31.620Z,32.70
2018-05-26T19:04:59.817Z,32.50
2018-05-26T19:07:27.266Z,32.50
2018-05-26T19:09:54.716Z,32.50
2018-05-26T19:12:22.927Z,32.40
2018-05-26T19:14:50.371Z,32.40
2018-05-26T19:17:17.812Z,32.40
2018-05-26T19:19:46.932Z,32.40
2018-05-26T19:22:14.374Z,32.30
2018-05-26T19:24:41.806Z,32.30
2018-05-26T19:27:10.032Z,32.10
2018-05-26T19:29:37.455Z,32.10
2018-05-26T19:32:04.891Z,32.10
2018-05-26T19:34:33.101Z,32.00
2018-05-26T19:37:00.559Z,31.90
2018-05-26T19:39:27.979Z,31.90
2018-05-26T19:41:55.419Z,31.70
2018-05-26T19:44:22.847Z,31.70
2018-05-26T19:46:50.300Z,31.60
2018-05-26T19:49:17.735Z,31.60
2018-05-26T19:51:45.185Z,31.50
2018-05-26T19:54:13.512Z,31.40
2018-05-26T19:56:41.148Z,31.40
2018-05-26T19:59:08.568Z,31.30
2018-05-26T20:01:36.033Z,31.20
2018-05-26T20:04:03.455Z,31.20
2018-05-26T20:06:30.888Z,31.20
2018-05-26T20:08:58.320Z,31.30
2018-05-26T20:11:25.785Z,31.40
2018-05-26T20:13:53.235Z,31.50
2018-05-26T20:16:21.440Z,31.70
2018-05-26T20:18:48.877Z,31.70
2018-05-26T20:21:17.071Z,32.10
2018-05-26T20:23:44.505Z,32.10
2018-05-26T20:26:11.939Z,32.20
2018-05-26T20:28:39.377Z,32.30
2018-05-26T20:31:06.798Z,32.40
2018-05-26T20:33:34.295Z,32.50
2018-05-26T20:36:01.715Z,32.60
2018-05-26T20:38:29.152Z,32.60
2018-05-26T20:40:56.596Z,32.60
2018-05-26T20:43:24.800Z,32.70
2018-05-26T20:45:52.236Z,32.70
2018-05-26T20:48:19.683Z,32.60
2018-05-26T20:50:47.887Z,32.70
2018-05-26T20:53:15.338Z,32.70
2018-05-26T20:55:42.767Z,32.70
2018-05-26T20:58:10.972Z,32.70
2018-05-26T21:00:38.401Z,32.70
2018-05-26T21:03:06.604Z,32.30
2018-05-26T21:05:34.048Z,32.30
2018-05-26T21:08:02.251Z,32.30
2018-05-26T21:10:29.684Z,32.30
2018-05-26T21:12:57.123Z,32.20
2018-05-26T21:15:25.323Z,31.70
2018-05-26T21:17:52.756Z,31.70
2018-05-26T21:20:20.969Z,31.20
2018-05-26T21:22:48.396Z,31.20
2018-05-26T21:25:16.604Z,30.70
2018-05-26T21:27:44.093Z,30.70
2018-05-26T21:30:11.495Z,30.50
2018-05-26T21:32:38.936Z,30.30
2018-05-26T21:35:07.354Z,30.00
2018-05-26T21:37:34.791Z,29.90
2018-05-26T21:40:02.216Z,29.80
2018-05-26T21:42:29.652Z,29.60
2018-05-26T21:44:57.103Z,29.50
2018-05-26T21:47:24.547Z,29.30
2018-05-26T21:49:51.973Z,29.20
2018-05-26T21:52:19.415Z,29.00
2018-05-26T21:54:48.015Z,28.80
2018-05-26T21:57:15.453Z,28.80
2018-05-26T21:59:43.648Z,28.60
2018-05-26T22:02:11.081Z,28.60
2018-05-26T22:04:38.498Z,28.60
2018-05-26T22:07:05.935Z,28.40
2018-05-26T22:09:33.368Z,28.40
2018-05-26T22:12:01.580Z,28.30
2018-05-26T22:14:29.027Z,28.20
2018-05-26T22:16:56.453Z,28.20
2018-05-26T22:19:24.663Z,28.10
2018-05-26T22:21:52.094Z,28.10
2018-05-26T22:24:19.532Z,28.00
2018-05-26T22:26:48.460Z,27.90
2018-05-26T22:29:15.924Z,27.90
2018-05-26T22:31:44.092Z,27.80
2018-05-26T22:34:11.520Z,27.80
2018-05-26T22:36:39.715Z,27.60
2018-05-26T22:39:07.159Z,27.60
2018-05-26T22:41:35.900Z,27.60
2018-05-26T22:44:03.345Z,27.60
2018-05-26T22:46:30.776Z,27.60
2018-05-26T22:48:58.254Z,27.50
2018-05-26T22:51:25.699Z,27.30
2018-05-26T22:53:53.558Z,27.20
2018-05-26T22:56:20.987Z,27.10
2018-05-26T22:58:48.419Z,27.00
2018-05-26T23:01:15.855Z,26.90
2018-05-26T23:03:43.296Z,26.90
2018-05-26T23:06:10.745Z,26.90
2018-05-26T23:08:38.255Z,26.90
2018-05-26T23:11:05.695Z,26.90
2018-05-26T23:13:33.137Z,26.80
2018-05-26T23:16:00.572Z,26.80
2018-05-26T23:18:28.776Z,26.60
2018-05-26T23:20:56.214Z,26.60
2018-05-26T23:23:23.662Z,26.50
2018-05-26T23:25:51.864Z,26.50
2018-05-26T23:28:19.303Z,26.40
2018-05-26T23:30:47.548Z,26.40
2018-05-26T23:33:15.770Z,26.40
2018-05-26T23:35:43.181Z,26.30
2018-05-26T23:38:10.625Z,26.40
2018-05-26T23:40:38.143Z,26.30
2018-05-26T23:43:05.877Z,26.40
2018-05-26T23:45:34.071Z,26.40
2018-05-26T23:48:01.504Z,26.40
2018-05-26T23:50:29.704Z,26.20
2018-05-26T23:52:57.135Z,26.20
2018-05-26T23:55:25.343Z,26.10
2018-05-26T23:57:52.767Z,26.10
